Enders, NE (69027)

6:13 AM MST on December 03, 2016 (GMT -0700)
Imperial Municipal | | Change Station

Elev 3274 ft 40.51 °N, 101.62 °W | Updated 20 minutes ago

Overcast
Overcast
30 °F
Feels Like 22 °F
N
8
Wind Variable Wind from SSW

Today
High -- | Low -- °F
--% Chance of Precip.
Yesterday
High -- | Low -- °F
Precip. -- in
Pressure 30.20 in
Visibility 10.0 miles
Clouds Overcast 7000 ft
Windchill 22 °F
Dew Point 23 °F
Humidity 75%
Rainfall 0.00 in
Snow Depth Not available.
6:52 AM 4:19 PM
Waxing Crescent, 15% visible
METAR KIML 031253Z AUTO 20007KT 10SM OVC070 M01/M05 A3012 RMK AO2 SLP226 T10111050
Pressure 30.20 in
Visibility 10.0 miles
Clouds Overcast 7000 ft
Windchill 22 °F
Dew Point 23 °F
Humidity 75%
Rainfall 0.00 in
Snow Depth Not available.
6:52 AM 4:19 PM
Waxing Crescent, 15% visible
METAR KIML 031253Z AUTO 20007KT 10SM OVC070 M01/M05 A3012 RMK AO2 SLP226 T10111050

10-Day Weather Forecast

Almanac

Astronomy

Dec. 03, 2016 Rise Set
Actual Time
Civil Twilight
Nautical Twilight
Astronomical Twilight
Moon
Length of Visible Light
Length of Day
Tomorrow will be .
, % of the Moon is Illuminated

Today's Extremes

State Highs State Lows

Community

WunderPhotos

Upload Photos

1,955,443 photos uploaded!

WunderBlog® & News

Nearby

Air Quality

  Air Quality AQ Index Pollutant
Not available.

Snow Depth

Station Depth Elevation

Earthquake Activity

City Distance Mag. Time & Date
Minimum magnitude displayed is 2.5.

Coastal Water Temperatures

Place Temperature

Stations

Nearby Weather Stations

Station Location Temp. Windchill Dew Point Humidity Wind Precip. Elev Updated Type
                   

Watches & Warnings

There are currently no watches in effect.